createdAt,value
2023-04-22T00:02:19.352Z,81.92
2023-04-22T00:04:46.568Z,80.79
2023-04-22T00:07:15.158Z,80.72
2023-04-22T00:09:42.689Z,80.81
2023-04-22T00:12:11.690Z,80.14
2023-04-22T00:14:38.864Z,81.00
2023-04-22T00:17:07.081Z,80.69
2023-04-22T00:19:34.892Z,81.28
2023-04-22T00:22:01.860Z,80.96
2023-04-22T00:24:29.402Z,80.73
2023-04-22T00:26:56.284Z,80.31
2023-04-22T00:29:22.991Z,80.54
2023-04-22T00:31:49.784Z,80.77
2023-04-22T00:34:18.308Z,80.58
2023-04-22T00:36:46.024Z,80.93
2023-04-22T00:39:12.774Z,80.68
2023-04-22T00:41:40.125Z,80.79
2023-04-22T00:44:11.188Z,81.04
2023-04-22T00:46:39.767Z,82.01
2023-04-22T00:49:08.682Z,82.25
2023-04-22T00:51:36.495Z,84.22
2023-04-22T00:54:04.619Z,84.87
2023-04-22T00:56:33.800Z,83.81
2023-04-22T00:59:00.464Z,83.54
2023-04-22T01:01:27.974Z,83.28
2023-04-22T01:03:55.081Z,83.09
2023-04-22T01:06:23.997Z,83.13
2023-04-22T01:08:51.136Z,84.08
2023-04-22T01:11:18.747Z,82.87
2023-04-22T01:13:45.993Z,82.30
2023-04-22T01:16:13.301Z,82.66
2023-04-22T01:18:40.348Z,82.49
2023-04-22T01:21:07.266Z,82.54
2023-04-22T01:23:34.179Z,82.57
2023-04-22T01:26:01.073Z,83.15
2023-04-22T01:28:29.096Z,83.54
2023-04-22T01:30:56.318Z,83.05
2023-04-22T01:33:23.734Z,83.78
2023-04-22T01:35:50.765Z,83.33
2023-04-22T01:38:18.100Z,83.82
2023-04-22T01:40:44.759Z,84.23
2023-04-22T01:43:11.383Z,84.66
2023-04-22T01:45:39.091Z,83.96
2023-04-22T01:48:09.112Z,83.68
2023-04-22T01:50:37.251Z,84.10
2023-04-22T01:53:04.058Z,84.84
2023-04-22T01:55:31.316Z,85.14
2023-04-22T01:57:58.184Z,84.62
2023-04-22T02:00:24.924Z,84.56
2023-04-22T02:02:52.050Z,85.66
2023-04-22T02:05:18.915Z,85.58
2023-04-22T02:07:46.848Z,84.91
2023-04-22T02:10:16.665Z,83.95
2023-04-22T02:12:44.483Z,84.51
2023-04-22T02:15:13.870Z,84.85
2023-04-22T02:17:42.598Z,84.78
2023-04-22T02:20:11.357Z,85.02
2023-04-22T02:22:39.076Z,84.49
2023-04-22T02:25:06.231Z,84.94
2023-04-22T02:27:33.277Z,85.08
2023-04-22T02:29:59.991Z,84.44
2023-04-22T02:32:26.796Z,84.75
2023-04-22T02:34:53.498Z,85.60
2023-04-22T02:37:22.823Z,86.65
2023-04-22T02:39:49.896Z,86.37
2023-04-22T02:42:17.340Z,85.01
2023-04-22T02:44:44.081Z,86.76
2023-04-22T02:47:10.940Z,88.05
2023-04-22T02:49:37.825Z,88.68
2023-04-22T02:52:05.158Z,87.09
2023-04-22T02:54:31.954Z,87.52
2023-04-22T02:56:58.895Z,88.53
2023-04-22T02:59:26.092Z,88.61
2023-04-22T03:01:53.030Z,88.56
2023-04-22T03:04:40.036Z,87.84
2023-04-22T03:07:06.711Z,87.37
2023-04-22T03:09:34.677Z,86.77
2023-04-22T03:12:02.572Z,87.21
2023-04-22T03:14:30.084Z,88.01
2023-04-22T03:16:57.147Z,88.30
2023-04-22T03:19:23.853Z,87.86
2023-04-22T03:21:50.538Z,87.83
2023-04-22T03:24:17.692Z,88.52
2023-04-22T03:26:49.121Z,88.93
2023-04-22T03:29:15.858Z,89.28
2023-04-22T03:31:43.377Z,89.89
2023-04-22T03:34:10.443Z,89.68
2023-04-22T03:36:37.788Z,89.39
2023-04-22T03:39:05.105Z,89.29
2023-04-22T03:41:33.485Z,89.17
2023-04-22T03:44:01.781Z,90.13
2023-04-22T03:46:30.196Z,90.26
2023-04-22T03:49:06.504Z,90.02
2023-04-22T03:51:35.124Z,90.62
2023-04-22T03:54:07.335Z,89.91
2023-04-22T03:56:37.541Z,90.36
2023-04-22T03:59:06.121Z,90.66
2023-04-22T04:01:34.052Z,90.77
2023-04-22T04:04:04.688Z,90.37
2023-04-22T04:06:44.309Z,91.38
2023-04-22T04:09:11.271Z,90.51
2023-04-22T04:11:38.568Z,90.60
2023-04-22T04:14:05.361Z,90.32
2023-04-22T04:16:48.733Z,89.42
2023-04-22T04:19:24.238Z,88.67
2023-04-22T04:21:51.904Z,89.43
2023-04-22T04:24:19.972Z,90.46
2023-04-22T04:26:49.498Z,91.06
2023-04-22T04:29:21.503Z,91.05
2023-04-22T04:31:59.251Z,89.57
2023-04-22T04:34:28.683Z,91.07
2023-04-22T04:36:56.961Z,90.78
2023-04-22T04:39:32.936Z,89.23
2023-04-22T04:42:01.429Z,88.71
2023-04-22T04:44:33.814Z,90.55
2023-04-22T04:47:05.193Z,91.66
2023-04-22T04:49:31.932Z,92.53
2023-04-22T04:52:01.758Z,93.32
2023-04-22T04:54:29.129Z,93.94
2023-04-22T04:56:58.483Z,93.06
2023-04-22T04:59:26.044Z,93.21
2023-04-22T05:01:54.296Z,93.25
2023-04-22T05:04:21.999Z,93.39
2023-04-22T05:06:49.077Z,92.97
2023-04-22T05:09:15.785Z,93.22
2023-04-22T05:11:44.032Z,93.24
2023-04-22T05:14:16.033Z,92.75
2023-04-22T05:16:45.644Z,92.14
2023-04-22T05:19:13.382Z,91.56
2023-04-22T05:21:41.969Z,91.47
2023-04-22T05:24:08.831Z,92.14
2023-04-22T05:26:36.082Z,92.12
2023-04-22T05:29:08.739Z,93.41
2023-04-22T05:31:35.613Z,93.23
2023-04-22T05:34:02.326Z,92.96
2023-04-22T05:36:31.456Z,93.46
2023-04-22T05:38:59.548Z,93.21
2023-04-22T05:41:27.123Z,93.61
2023-04-22T05:43:56.266Z,92.83
2023-04-22T05:46:23.268Z,91.58
2023-04-22T05:48:51.236Z,90.71
2023-04-22T05:51:47.288Z,91.70
2023-04-22T05:54:18.370Z,91.49
2023-04-22T05:56:45.224Z,91.25
2023-04-22T05:59:11.976Z,90.83
2023-04-22T06:01:38.806Z,90.86
2023-04-22T06:04:09.954Z,89.78
2023-04-22T06:06:37.123Z,87.96
2023-04-22T06:09:03.988Z,86.71
2023-04-22T06:11:30.731Z,86.17
2023-04-22T06:13:57.420Z,85.37
2023-04-22T06:16:24.145Z,83.44
2023-04-22T06:18:51.187Z,80.97
2023-04-22T06:21:17.925Z,81.39
2023-04-22T06:23:44.640Z,79.88
2023-04-22T06:26:11.625Z,77.86
2023-04-22T06:28:38.488Z,78.04
2023-04-22T06:31:10.851Z,77.46
2023-04-22T06:33:38.172Z,76.92
2023-04-22T06:36:05.658Z,76.01
2023-04-22T06:38:33.626Z,74.44
2023-04-22T06:41:23.526Z,74.08
2023-04-22T06:43:52.512Z,74.56
2023-04-22T06:46:44.938Z,74.95
2023-04-22T06:49:39.564Z,75.66
2023-04-22T06:52:18.263Z,74.03
2023-04-22T06:54:45.653Z,72.23
2023-04-22T06:57:12.338Z,69.95
2023-04-22T06:59:39.500Z,68.78
2023-04-22T07:02:07.628Z,67.23
2023-04-22T07:04:37.467Z,66.93
2023-04-22T07:07:04.854Z,66.71
2023-04-22T07:09:31.854Z,67.05
2023-04-22T07:11:59.142Z,68.04
2023-04-22T07:14:29.295Z,67.05
2023-04-22T07:16:56.135Z,65.85
2023-04-22T07:19:22.942Z,66.09
2023-04-22T07:21:49.628Z,66.08
2023-04-22T07:24:16.612Z,65.94
2023-04-22T07:26:44.915Z,65.69
2023-04-22T07:29:12.954Z,66.16
2023-04-22T07:31:41.320Z,66.55
2023-04-22T07:34:10.505Z,66.25
2023-04-22T07:36:37.451Z,64.11
2023-04-22T07:39:04.240Z,63.02
2023-04-22T07:41:31.668Z,63.72
2023-04-22T07:43:58.345Z,62.70
2023-04-22T07:46:25.149Z,62.60
2023-04-22T07:48:51.794Z,63.33
2023-04-22T07:51:18.441Z,64.16
2023-04-22T07:53:45.571Z,63.83
2023-04-22T07:56:13.000Z,63.52
2023-04-22T07:58:40.738Z,62.09
2023-04-22T08:01:07.499Z,62.60
2023-04-22T08:03:34.381Z,62.82
2023-04-22T08:06:01.292Z,60.98
2023-04-22T08:08:28.116Z,59.60
2023-04-22T08:10:54.808Z,59.52
2023-04-22T08:13:21.504Z,57.78
2023-04-22T08:15:48.178Z,57.96
2023-04-22T08:18:15.175Z,55.93
2023-04-22T08:20:41.803Z,55.70
2023-04-22T08:23:08.446Z,56.89
2023-04-22T08:25:35.393Z,59.43
2023-04-22T08:28:02.421Z,58.65
2023-04-22T08:30:29.173Z,59.09
2023-04-22T08:32:56.085Z,58.27
2023-04-22T08:35:22.826Z,58.34
2023-04-22T08:37:49.467Z,58.40
2023-04-22T08:40:16.358Z,58.14
2023-04-22T08:42:44.636Z,57.91
2023-04-22T08:45:13.186Z,58.45
2023-04-22T08:47:41.236Z,58.73
2023-04-22T08:50:09.643Z,57.85
2023-04-22T08:52:36.652Z,57.00
2023-04-22T08:55:04.046Z,56.03
2023-04-22T08:57:32.075Z,54.23
2023-04-22T08:59:59.317Z,50.83
2023-04-22T09:02:27.067Z,51.26
2023-04-22T09:04:54.083Z,50.51
2023-04-22T09:07:26.898Z,51.69
2023-04-22T09:09:55.539Z,51.93
2023-04-22T09:12:22.702Z,52.05
2023-04-22T09:14:49.481Z,52.10
2023-04-22T09:17:17.612Z,52.25
2023-04-22T09:19:45.712Z,52.10
2023-04-22T09:22:16.145Z,52.14
2023-04-22T09:24:49.009Z,52.05
2023-04-22T09:27:17.628Z,52.35
2023-04-22T09:29:52.302Z,52.36
2023-04-22T09:32:19.480Z,51.62
2023-04-22T09:34:52.227Z,51.74
2023-04-22T09:37:30.813Z,51.61
2023-04-22T09:40:04.188Z,50.89
2023-04-22T09:42:31.296Z,51.94
2023-04-22T09:45:00.006Z,51.91
2023-04-22T09:47:36.650Z,52.46
2023-04-22T09:50:06.809Z,52.96
2023-04-22T09:52:33.558Z,53.51
2023-04-22T09:55:00.214Z,52.61
2023-04-22T09:57:27.703Z,52.51
2023-04-22T09:59:58.950Z,53.64
2023-04-22T10:02:29.884Z,53.00
2023-04-22T10:04:58.430Z,52.04
2023-04-22T10:07:31.252Z,51.27
2023-04-22T10:09:58.395Z,50.55
2023-04-22T10:12:35.286Z,50.33
2023-04-22T10:15:07.663Z,49.56
2023-04-22T10:17:38.050Z,49.57
2023-04-22T10:20:13.656Z,49.33
2023-04-22T10:22:42.812Z,48.49
2023-04-22T10:25:23.529Z,47.60
2023-04-22T10:28:03.164Z,47.29
2023-04-22T10:30:32.219Z,47.65
2023-04-22T10:33:27.462Z,47.78
2023-04-22T10:36:10.689Z,47.88
2023-04-22T10:38:57.714Z,47.52
2023-04-22T10:41:33.385Z,47.66
2023-04-22T10:44:05.684Z,46.61
2023-04-22T10:46:37.375Z,46.50
2023-04-22T10:49:15.691Z,46.37
2023-04-22T10:51:46.750Z,44.77
2023-04-22T10:54:26.925Z,44.14
2023-04-22T10:57:08.743Z,43.60
2023-04-22T11:00:00.333Z,42.80
2023-04-22T11:02:27.494Z,43.53
2023-04-22T11:05:21.903Z,43.51
2023-04-22T11:07:52.419Z,42.98
2023-04-22T11:10:44.376Z,42.94
2023-04-22T11:13:29.479Z,43.63
2023-04-22T11:15:56.309Z,44.28
2023-04-22T11:18:26.089Z,44.14
2023-04-22T11:20:53.694Z,43.49
2023-04-22T11:23:27.223Z,43.53
2023-04-22T11:26:02.753Z,42.59
2023-04-22T11:28:29.642Z,42.42
2023-04-22T11:31:06.840Z,41.79
2023-04-22T11:33:34.701Z,40.48
2023-04-22T11:36:01.672Z,39.91
2023-04-22T11:38:28.797Z,40.27
2023-04-22T11:40:58.376Z,39.75
2023-04-22T11:43:26.108Z,39.67
2023-04-22T11:45:55.766Z,39.17
2023-04-22T11:48:23.011Z,38.86
2023-04-22T11:51:06.925Z,38.04
2023-04-22T11:53:33.689Z,36.55
2023-04-22T11:56:03.762Z,35.05
2023-04-22T11:58:30.615Z,34.75
2023-04-22T12:00:59.226Z,35.24
2023-04-22T12:03:30.200Z,35.39
2023-04-22T12:06:00.913Z,35.30
2023-04-22T12:08:31.895Z,34.59
2023-04-22T12:11:04.122Z,34.82
2023-04-22T12:13:34.192Z,34.98
2023-04-22T12:16:02.779Z,35.09
2023-04-22T12:18:34.670Z,35.33
2023-04-22T12:21:04.765Z,35.14
2023-04-22T12:23:44.490Z,35.02
2023-04-22T12:26:12.907Z,35.07
2023-04-22T12:28:41.099Z,35.43
2023-04-22T12:31:08.969Z,35.84
2023-04-22T12:33:37.334Z,35.87
2023-04-22T12:36:05.638Z,36.21
2023-04-22T12:38:32.765Z,36.22
2023-04-22T12:40:59.656Z,36.51
2023-04-22T12:43:26.541Z,37.31
2023-04-22T12:45:53.395Z,37.50
2023-04-22T12:48:20.641Z,38.56
2023-04-22T12:50:47.342Z,38.11
2023-04-22T12:53:16.176Z,38.76
2023-04-22T12:55:45.373Z,38.82
2023-04-22T12:58:12.872Z,38.59
2023-04-22T13:00:40.041Z,38.68
2023-04-22T13:03:07.364Z,38.36
2023-04-22T13:05:34.212Z,38.63
2023-04-22T13:08:07.092Z,38.66
2023-04-22T13:10:35.642Z,38.60
2023-04-22T13:13:17.536Z,38.77
2023-04-22T13:15:45.525Z,38.63
2023-04-22T13:18:12.356Z,37.91
2023-04-22T13:20:39.996Z,38.07
2023-04-22T13:23:06.674Z,38.19
2023-04-22T13:25:33.399Z,38.02
2023-04-22T13:28:00.154Z,37.88
2023-04-22T13:30:27.071Z,38.37
2023-04-22T13:32:53.853Z,38.10
2023-04-22T13:35:20.736Z,38.83
2023-04-22T13:37:47.527Z,39.04
2023-04-22T13:40:14.289Z,39.10
2023-04-22T13:42:41.180Z,39.43
2023-04-22T13:45:08.472Z,38.75
2023-04-22T13:47:35.445Z,38.37
2023-04-22T13:50:02.505Z,37.25
2023-04-22T13:52:30.603Z,37.07
2023-04-22T13:54:57.260Z,37.16
2023-04-22T13:57:23.936Z,36.89
2023-04-22T13:59:50.665Z,36.84
2023-04-22T14:02:17.815Z,36.39
2023-04-22T14:04:44.570Z,36.45
2023-04-22T14:07:12.106Z,36.06
2023-04-22T14:09:39.147Z,36.18
2023-04-22T14:12:07.963Z,36.16
2023-04-22T14:14:34.701Z,36.37
2023-04-22T14:17:01.477Z,36.53
2023-04-22T14:19:30.243Z,36.70
2023-04-22T14:21:57.665Z,36.87
2023-04-22T14:24:24.774Z,36.90
2023-04-22T14:26:52.293Z,36.99
2023-04-22T14:29:19.194Z,37.22
2023-04-22T14:31:45.895Z,37.35
2023-04-22T14:34:12.693Z,37.58
2023-04-22T14:36:39.384Z,37.26
2023-04-22T14:39:06.252Z,37.23
2023-04-22T14:41:33.118Z,37.37
2023-04-22T14:44:00.212Z,37.48
2023-04-22T14:46:27.002Z,36.93
2023-04-22T14:48:53.655Z,37.03
2023-04-22T14:51:21.111Z,37.23
2023-04-22T14:53:47.925Z,37.21
2023-04-22T14:56:14.705Z,36.80
2023-04-22T14:58:41.494Z,36.76
2023-04-22T15:01:08.386Z,36.75
2023-04-22T15:03:35.819Z,36.04
2023-04-22T15:06:03.043Z,35.87
2023-04-22T15:08:29.996Z,35.16
2023-04-22T15:10:56.923Z,35.32
2023-04-22T15:13:23.898Z,35.30
2023-04-22T15:15:50.698Z,35.62
2023-04-22T15:18:17.496Z,36.14
2023-04-22T15:20:44.357Z,36.41
2023-04-22T15:23:11.207Z,36.35
2023-04-22T15:25:38.205Z,35.88
2023-04-22T15:28:04.979Z,36.05
2023-04-22T15:30:31.690Z,35.85
2023-04-22T15:32:58.485Z,36.19
2023-04-22T15:35:25.275Z,36.39
2023-04-22T15:37:52.837Z,36.35
2023-04-22T15:40:19.817Z,36.53
2023-04-22T15:42:47.026Z,36.73
2023-04-22T15:45:13.739Z,36.60
2023-04-22T15:47:41.667Z,37.27
2023-04-22T15:50:09.723Z,36.67
2023-04-22T15:52:38.136Z,37.36
2023-04-22T15:55:06.496Z,38.43
2023-04-22T15:57:35.408Z,35.96
2023-04-22T16:00:13.389Z,35.92
2023-04-22T16:02:44.977Z,36.00
2023-04-22T16:05:13.872Z,36.66
2023-04-22T16:07:40.683Z,37.79
2023-04-22T16:10:09.273Z,37.86
2023-04-22T16:12:36.180Z,37.48
2023-04-22T16:15:02.924Z,37.31
2023-04-22T16:17:32.014Z,38.41
2023-04-22T16:19:58.867Z,38.27
2023-04-22T16:22:25.579Z,38.88
2023-04-22T16:24:52.365Z,39.37
2023-04-22T16:27:19.244Z,40.38
2023-04-22T16:29:46.072Z,38.01
2023-04-22T16:32:12.838Z,39.87
2023-04-22T16:34:39.664Z,39.80
2023-04-22T16:37:06.498Z,38.79
2023-04-22T16:39:33.734Z,41.80
2023-04-22T16:42:02.283Z,38.73
2023-04-22T16:44:29.213Z,40.46
2023-04-22T16:46:56.082Z,39.87
2023-04-22T16:49:22.833Z,40.05
2023-04-22T16:51:49.867Z,40.06
2023-04-22T16:54:16.551Z,39.41
2023-04-22T16:56:43.248Z,41.14
2023-04-22T16:59:10.219Z,42.49
2023-04-22T17:01:37.363Z,45.76
2023-04-22T17:04:04.197Z,41.07
2023-04-22T17:06:31.188Z,41.51
2023-04-22T17:08:59.828Z,41.36
2023-04-22T17:11:26.562Z,41.03
2023-04-22T17:13:53.319Z,39.47
2023-04-22T17:16:20.931Z,42.00
2023-04-22T17:18:47.845Z,40.46
2023-04-22T17:21:15.138Z,39.65
2023-04-22T17:23:42.071Z,41.59
2023-04-22T17:26:08.826Z,40.76
2023-04-22T17:28:35.644Z,40.83
2023-04-22T17:31:03.860Z,42.32
2023-04-22T17:33:31.204Z,40.48
2023-04-22T17:35:57.959Z,42.06
2023-04-22T17:38:24.968Z,41.81
2023-04-22T17:40:51.653Z,42.17
2023-04-22T17:43:18.317Z,44.30
2023-04-22T17:45:45.201Z,42.42
2023-04-22T17:48:11.961Z,42.25
2023-04-22T17:50:38.829Z,42.11
2023-04-22T17:53:05.530Z,42.00
2023-04-22T17:55:35.078Z,43.31
2023-04-22T17:58:02.572Z,42.21
2023-04-22T18:00:30.028Z,42.57
2023-04-22T18:02:57.059Z,43.68
2023-04-22T18:05:23.996Z,44.45
2023-04-22T18:07:50.855Z,47.49
2023-04-22T18:10:17.533Z,51.84
2023-04-22T18:12:44.204Z,47.95
2023-04-22T18:15:10.989Z,50.15
2023-04-22T18:17:37.851Z,48.49
2023-04-22T18:20:16.641Z,50.50
2023-04-22T18:22:45.469Z,49.79
2023-04-22T18:25:12.268Z,50.82
2023-04-22T18:27:38.995Z,49.62
2023-04-22T18:30:06.394Z,49.30
2023-04-22T18:32:33.300Z,49.02
2023-04-22T18:35:00.048Z,50.90
2023-04-22T18:37:30.577Z,49.26
2023-04-22T18:39:57.497Z,49.73
2023-04-22T18:42:24.434Z,52.87
2023-04-22T18:44:51.684Z,50.47
2023-04-22T18:47:18.405Z,50.65
2023-04-22T18:49:45.296Z,51.86
2023-04-22T18:52:12.222Z,50.43
2023-04-22T18:54:39.604Z,51.89
2023-04-22T18:57:06.838Z,52.10
2023-04-22T18:59:33.527Z,52.29
2023-04-22T19:02:00.347Z,54.06
2023-04-22T19:04:27.663Z,52.30
2023-04-22T19:06:56.857Z,52.19
2023-04-22T19:09:24.011Z,51.82
2023-04-22T19:11:50.877Z,51.59
2023-04-22T19:14:17.517Z,51.93
2023-04-22T19:16:44.264Z,52.75
2023-04-22T19:19:12.041Z,52.45
2023-04-22T19:21:39.676Z,53.58
2023-04-22T19:24:06.940Z,53.70
2023-04-22T19:26:34.002Z,53.26
2023-04-22T19:29:01.119Z,52.85
2023-04-22T19:31:28.985Z,54.33
2023-04-22T19:33:55.887Z,54.47
2023-04-22T19:36:22.774Z,54.77
2023-04-22T19:38:49.574Z,55.93
2023-04-22T19:41:16.570Z,56.31
2023-04-22T19:43:43.431Z,56.92
2023-04-22T19:46:10.277Z,58.09
2023-04-22T19:48:37.501Z,58.01
2023-04-22T19:51:06.112Z,59.41
2023-04-22T19:53:33.651Z,60.13
2023-04-22T19:56:00.857Z,59.88
2023-04-22T19:58:28.556Z,60.59
2023-04-22T20:00:55.849Z,60.72
2023-04-22T20:03:23.180Z,61.70
2023-04-22T20:05:50.385Z,61.86
2023-04-22T20:08:19.760Z,62.10
2023-04-22T20:10:49.171Z,62.52
2023-04-22T20:13:16.860Z,62.82
2023-04-22T20:15:44.401Z,63.75
2023-04-22T20:18:11.817Z,63.65
2023-04-22T20:20:40.408Z,63.93
2023-04-22T20:23:10.491Z,64.71
2023-04-22T20:25:42.079Z,65.83
2023-04-22T20:28:10.619Z,65.50
2023-04-22T20:30:39.096Z,66.09
2023-04-22T20:33:06.153Z,67.33
2023-04-22T20:35:35.608Z,68.09
2023-04-22T20:38:03.548Z,67.94
2023-04-22T20:40:30.679Z,68.85
2023-04-22T20:42:58.662Z,69.37
2023-04-22T20:45:27.220Z,68.94
2023-04-22T20:47:54.121Z,69.30
2023-04-22T20:50:20.958Z,69.76
2023-04-22T20:52:48.957Z,70.67
2023-04-22T20:55:16.763Z,70.91
2023-04-22T20:57:43.489Z,71.21
2023-04-22T21:00:10.709Z,71.35
2023-04-22T21:02:43.636Z,70.75
2023-04-22T21:05:11.876Z,71.12
2023-04-22T21:07:39.420Z,71.22
2023-04-22T21:10:07.367Z,71.39
2023-04-22T21:12:34.538Z,71.03
2023-04-22T21:15:01.515Z,71.36
2023-04-22T21:17:32.439Z,72.39
2023-04-22T21:20:01.291Z,72.61
2023-04-22T21:22:29.483Z,71.65
2023-04-22T21:24:56.885Z,73.91
2023-04-22T21:27:23.785Z,73.35
2023-04-22T21:29:50.821Z,74.26
2023-04-22T21:32:20.046Z,73.10
2023-04-22T21:34:46.889Z,73.73
2023-04-22T21:37:13.875Z,74.03
2023-04-22T21:39:40.862Z,73.66
2023-04-22T21:42:08.643Z,73.24
2023-04-22T21:44:37.229Z,72.90
2023-04-22T21:47:05.151Z,73.90
2023-04-22T21:49:32.101Z,73.76
2023-04-22T21:51:59.303Z,74.47
2023-04-22T21:54:26.840Z,74.99
2023-04-22T21:56:54.204Z,75.60
2023-04-22T21:59:20.932Z,75.82
2023-04-22T22:01:47.819Z,76.09
2023-04-22T22:04:15.947Z,76.30
2023-04-22T22:06:45.199Z,77.11
2023-04-22T22:09:12.762Z,76.65
2023-04-22T22:11:39.580Z,76.11
2023-04-22T22:14:06.353Z,76.06
2023-04-22T22:16:33.350Z,77.40
2023-04-22T22:19:02.744Z,77.77
2023-04-22T22:21:29.766Z,78.75
2023-04-22T22:23:57.839Z,78.99
2023-04-22T22:26:26.205Z,79.56
2023-04-22T22:28:53.090Z,79.73
2023-04-22T22:31:20.045Z,80.39
2023-04-22T22:33:46.949Z,80.47
2023-04-22T22:36:13.894Z,81.30
2023-04-22T22:38:40.843Z,81.25
2023-04-22T22:41:07.966Z,80.17
2023-04-22T22:43:34.729Z,81.25
2023-04-22T22:46:01.803Z,82.32
2023-04-22T22:48:28.951Z,83.15
2023-04-22T22:50:56.613Z,84.04
2023-04-22T22:53:23.342Z,84.57
2023-04-22T22:55:49.996Z,84.58
2023-04-22T22:58:16.857Z,84.67
2023-04-22T23:00:43.580Z,85.24
2023-04-22T23:03:10.653Z,86.81
2023-04-22T23:05:37.796Z,86.85
2023-04-22T23:08:04.709Z,87.74
2023-04-22T23:10:31.524Z,87.74
2023-04-22T23:12:58.356Z,88.04
2023-04-22T23:15:25.108Z,88.38
2023-04-22T23:17:52.232Z,88.07
2023-04-22T23:20:20.462Z,88.37
2023-04-22T23:22:49.509Z,89.11
2023-04-22T23:25:18.347Z,88.30
2023-04-22T23:27:45.318Z,88.28
2023-04-22T23:30:12.577Z,87.70
2023-04-22T23:32:40.557Z,87.85
2023-04-22T23:35:08.626Z,88.44
2023-04-22T23:37:37.582Z,88.26
2023-04-22T23:40:04.877Z,88.26
2023-04-22T23:42:32.312Z,89.47
2023-04-22T23:44:59.047Z,89.28
2023-04-22T23:47:26.032Z,89.96
2023-04-22T23:49:52.870Z,90.46
2023-04-22T23:52:20.331Z,89.69
2023-04-22T23:54:47.362Z,90.44
2023-04-22T23:57:14.351Z,90.98
2023-04-22T23:59:41.528Z,91.37
